Time;durP1;ratioP1;P1;durP2;ratioP2;P2;SDS_P1;SDS_P2;PMS_P1;PMS_P2;Temp;Humidity;BMP_temperature;BMP_pressure;BME280_temperature;BME280_humidity;BME280_pressure;Samples;Min_cycle;Max_cycle;Signal;HPM_P1;HPM_P2
2023/02/19 00:01:23;;;;;;;23.10;14.93;;;10.40;99.90;;;;;;5094402;28;20047;-59
2023/02/19 00:03:51;;;;;;;23.50;15.37;;;10.40;99.90;;;;;;5094000;28;20032;-59
2023/02/19 00:06:19;;;;;;;21.77;14.63;;;10.30;99.90;;;;;;5094128;28;20130;-60
2023/02/19 00:08:45;;;;;;;21.63;15.17;;;10.40;99.90;;;;;;5093766;28;20067;-59
2023/02/19 00:11:13;;;;;;;22.23;15.03;;;10.40;99.90;;;;;;5093978;28;20124;-60
2023/02/19 00:13:41;;;;;;;22.35;15.02;;;10.30;99.90;;;;;;5093896;28;20035;-59
2023/02/19 00:16:13;;;;;;;23.20;15.37;;;10.30;99.90;;;;;;5094089;28;20523;-60
2023/02/19 00:18:39;;;;;;;27.77;18.33;;;10.30;99.90;;;;;;5093738;28;20298;-59
2023/02/19 00:21:05;;;;;;;23.00;16.13;;;10.30;99.90;;;;;;5093903;28;20105;-59
2023/02/19 00:23:31;;;;;;;35.20;22.87;;;10.30;99.90;;;;;;5093699;28;20082;-59
2023/02/19 00:26:03;;;;;;;21.87;15.00;;;10.20;99.90;;;;;;5093873;28;20225;-59
2023/02/19 00:28:28;;;;;;;23.57;15.40;;;10.20;99.90;;;;;;5093630;28;20038;-58
2023/02/19 00:30:54;;;;;;;23.30;15.87;;;10.20;99.90;;;;;;5093998;28;20472;-58
2023/02/19 00:33:20;;;;;;;21.97;15.13;;;10.10;99.90;;;;;;5092395;28;20024;-59
2023/02/19 00:35:45;;;;;;;22.50;15.07;;;10.10;99.90;;;;;;5093838;28;20032;-59
2023/02/19 00:38:11;;;;;;;25.37;16.60;;;10.10;99.90;;;;;;5093552;28;20028;-59
2023/02/19 00:40:38;;;;;;;23.37;15.20;;;10.10;99.90;;;;;;5093715;28;20032;-58
2023/02/19 00:43:03;;;;;;;24.27;16.10;;;10.10;99.90;;;;;;5093719;28;20063;-59
2023/02/19 00:45:29;;;;;;;20.63;15.53;;;10.10;99.90;;;;;;5092193;28;20066;-59
2023/02/19 00:47:55;;;;;;;24.33;16.83;;;10.10;99.90;;;;;;5091939;28;20119;-59
2023/02/19 00:50:20;;;;;;;24.03;15.20;;;10.10;99.90;;;;;;5093585;28;20032;-59
2023/02/19 00:52:46;;;;;;;23.70;15.27;;;10.10;99.90;;;;;;5093730;28;20028;-58
2023/02/19 00:55:12;;;;;;;22.40;15.43;;;10.10;99.90;;;;;;5092132;28;20073;-58
2023/02/19 00:57:38;;;;;;;23.37;15.43;;;10.10;99.90;;;;;;5092184;28;20508;-59
2023/02/19 01:00:05;;;;;;;22.47;15.50;;;10.10;99.90;;;;;;5093551;28;20425;-59
2023/02/19 01:02:31;;;;;;;24.17;16.23;;;10.10;99.90;;;;;;5092213;28;20137;-58
2023/02/19 01:04:57;;;;;;;26.13;16.57;;;10.10;99.90;;;;;;5093419;28;20177;-59
2023/02/19 01:07:23;;;;;;;24.67;15.93;;;10.10;99.90;;;;;;5093052;28;20516;-58
2023/02/19 01:09:50;;;;;;;24.63;15.67;;;10.10;99.90;;;;;;5092683;28;20029;-58
2023/02/19 01:12:15;;;;;;;24.90;16.40;;;10.10;99.90;;;;;;5093520;28;20031;-58
2023/02/19 01:14:41;;;;;;;27.23;16.27;;;10.10;99.90;;;;;;5091810;28;20032;-58
2023/02/19 01:17:07;;;;;;;27.23;17.20;;;10.10;99.90;;;;;;5093145;28;20103;-58
2023/02/19 01:19:33;;;;;;;27.30;17.17;;;10.10;99.90;;;;;;5093035;28;20039;-58
2023/02/19 01:21:58;;;;;;;28.93;18.03;;;10.10;99.90;;;;;;5091724;28;20055;-59
2023/02/19 01:24:24;;;;;;;28.87;17.07;;;10.10;99.90;;;;;;5092868;28;20072;-59
2023/02/19 01:26:50;;;;;;;31.53;17.13;;;10.10;99.90;;;;;;5092896;28;20028;-59
2023/02/19 01:29:15;;;;;;;30.20;18.33;;;10.10;99.90;;;;;;5091406;28;20044;-59
2023/02/19 01:31:41;;;;;;;30.27;17.93;;;10.00;99.90;;;;;;5093148;28;20362;-58
2023/02/19 01:34:09;;;;;;;29.83;18.00;;;10.10;99.90;;;;;;5092597;28;20028;-58
2023/02/19 01:36:36;;;;;;;33.37;18.17;;;10.10;99.90;;;;;;5091268;28;20036;-58
2023/02/19 01:39:04;;;;;;;32.20;17.83;;;10.00;99.90;;;;;;5092648;28;20020;-58
2023/02/19 01:41:33;;;;;;;29.93;17.47;;;10.00;99.90;;;;;;5092759;28;20432;-58
2023/02/19 01:44:08;;;;;;;31.60;17.98;;;10.00;99.90;;;;;;5092498;28;20107;-58
2023/02/19 01:46:41;;;;;;;27.07;17.50;;;10.00;99.90;;;;;;5092566;28;20402;-58
2023/02/19 01:49:12;;;;;;;30.00;17.07;;;9.90;99.90;;;;;;5092294;28;20373;-58
2023/02/19 01:51:43;;;;;;;33.53;18.97;;;10.00;99.90;;;;;;5092529;28;20024;-58
2023/02/19 01:54:11;;;;;;;34.17;17.90;;;10.00;99.90;;;;;;5092502;28;20097;-58
2023/02/19 01:56:41;;;;;;;32.10;18.03;;;9.90;99.90;;;;;;5091000;28;20051;-58
2023/02/19 01:59:07;;;;;;;32.97;19.30;;;10.00;99.90;;;;;;5090963;28;20024;-58
2023/02/19 02:01:36;;;;;;;32.53;18.17;;;9.90;99.90;;;;;;5092357;28;20035;-58
2023/02/19 02:04:04;;;;;;;32.23;18.57;;;10.00;99.90;;;;;;5092033;28;20020;-58
2023/02/19 02:06:36;;;;;;;30.20;18.25;;;10.00;99.90;;;;;;5090764;28;20093;-58
2023/02/19 02:11:49;;;;;;;34.77;19.13;;;10.00;99.90;;;;;;5092728;28;20039;-58
2023/02/19 02:14:24;;;;;;;33.17;18.52;;;10.00;99.90;;;;;;5091788;28;20477;-58
2023/02/19 02:17:16;;;;;;;29.97;18.43;;;10.00;99.90;;;;;;5091920;28;20024;-59
2023/02/19 02:20:00;;;;;;;37.03;19.30;;;10.10;99.90;;;;;;5066302;28;20036;-59
2023/02/19 02:22:35;;;;;;;34.20;19.90;;;10.00;99.90;;;;;;5090678;28;20455;-59
2023/02/19 02:25:31;;;;;;;34.13;18.87;;;10.00;99.90;;;;;;5090459;28;20050;-59
2023/02/19 02:28:22;;;;;;;35.17;18.03;;;10.00;99.90;;;;;;5090174;28;20032;-59
2023/02/19 02:30:51;;;;;;;36.93;19.53;;;10.00;99.90;;;;;;5090363;28;20024;-59
2023/02/19 02:33:43;;;;;;;35.70;20.17;;;10.00;99.90;;;;;;5091529;28;20036;-59
2023/02/19 02:36:19;;;;;;;34.27;18.67;;;10.00;99.90;;;;;;5091608;28;20035;-59
2023/02/19 02:38:47;;;;;;;33.70;18.73;;;10.00;99.90;;;;;;5090153;28;20035;-59
2023/02/19 02:41:14;;;;;;;35.60;19.02;;;10.10;99.90;;;;;;5091882;28;20032;-59
2023/02/19 02:43:41;;;;;;;37.40;18.73;;;10.10;99.90;;;;;;5091197;28;20038;-60
2023/02/19 02:46:10;;;;;;;31.73;18.70;;;10.00;99.90;;;;;;5090032;28;20032;-60
2023/02/19 02:48:58;;;;;;;33.13;18.20;;;10.00;99.90;;;;;;5089479;28;20060;-59
2023/02/19 02:51:35;;;;;;;36.20;18.20;;;10.00;99.90;;;;;;5089747;28;20051;-57
2023/02/19 02:56:59;;;;;;;32.47;17.23;;;10.10;99.90;;;;;;5089603;28;20056;-59
2023/02/19 02:59:33;;;;;;;34.80;18.20;;;10.10;99.90;;;;;;5089697;28;20105;-59
2023/02/19 03:02:21;;;;;;;35.37;17.23;;;10.10;99.90;;;;;;5089678;28;20024;-59
2023/02/19 03:07:48;;;;;;;35.67;16.67;;;10.10;99.90;;;;;;5090795;28;20116;-59
2023/02/19 03:10:31;;;;;;;30.90;15.43;;;10.10;99.90;;;;;;5089393;28;20043;-60
2023/02/19 03:21:22;;;;;;;31.50;15.73;;;10.00;99.90;;;;;;5090942;28;20043;-59
2023/02/19 03:26:36;;;;;;;30.83;15.10;;;10.00;99.90;;;;;;5090470;28;20034;-59
2023/02/19 03:31:51;;;;;;;34.20;15.50;;;10.00;99.90;;;;;;5092825;28;20035;-59
2023/02/19 03:34:40;;;;;;;28.97;13.27;;;10.00;99.90;;;;;;5095832;28;20028;-59
2023/02/19 03:37:12;;;;;;;27.07;14.00;;;10.00;99.90;;;;;;5096074;28;20423;-59
2023/02/19 03:39:43;;;;;;;29.70;14.07;;;10.10;99.90;;;;;;5097158;28;20394;-59
2023/02/19 03:42:34;;;;;;;25.30;13.50;;;10.00;99.90;;;;;;5096052;28;20031;-59
2023/02/19 03:45:06;;;;;;;28.13;12.95;;;10.10;99.90;;;;;;5095810;28;20055;-60
2023/02/19 03:47:50;;;;;;;30.30;12.63;;;10.10;99.90;;;;;;5095675;28;20042;-59
2023/02/19 03:50:27;;;;;;;31.10;13.27;;;10.00;99.90;;;;;;5095855;28;20032;-59
2023/02/19 03:52:56;;;;;;;28.07;12.17;;;9.90;99.90;;;;;;5095966;28;20078;-59
2023/02/19 03:55:29;;;;;;;;;;;10.00;99.90;;;;;;5096169;28;20093;-59
2023/02/19 03:58:03;;;;;;;27.90;13.23;;;9.90;99.90;;;;;;5095364;28;19908;-58
2023/02/19 04:00:39;;;;;;;23.17;12.70;;;9.80;99.90;;;;;;5096984;28;20101;-59
2023/02/19 04:03:07;;;;;;;29.50;13.10;;;9.80;99.90;;;;;;5095767;28;20487;-59
2023/02/19 04:05:38;;;;;;;23.63;12.65;;;9.80;99.90;;;;;;5095601;28;20028;-60
2023/02/19 04:08:12;;;;;;;24.90;12.07;;;9.80;99.90;;;;;;5095315;28;20036;-59
2023/02/19 04:10:53;;;;;;;29.70;12.30;;;9.70;99.90;;;;;;5072597;28;20420;-57
2023/02/19 04:13:31;;;;;;;28.33;11.93;;;9.70;99.90;;;;;;5075492;28;20485;-58
2023/02/19 04:16:07;;;;;;;25.27;12.10;;;9.70;99.90;;;;;;5076843;28;20378;-57
2023/02/19 04:18:37;;;;;;;25.53;11.60;;;9.70;99.90;;;;;;5078896;28;20493;-57
2023/02/19 04:21:05;;;;;;;23.47;11.60;;;9.70;99.90;;;;;;5097088;28;20027;-57
2023/02/19 04:23:37;;;;;;;30.70;12.00;;;9.70;99.90;;;;;;5096569;28;20043;-58
2023/02/19 04:26:05;;;;;;;30.90;12.07;;;9.70;99.90;;;;;;5096942;28;20103;-58
2023/02/19 04:28:31;;;;;;;27.60;11.73;;;9.70;99.90;;;;;;5096433;28;20400;-58
2023/02/19 04:30:57;;;;;;;27.67;12.00;;;9.60;99.90;;;;;;5096882;28;20028;-58
2023/02/19 04:33:23;;;;;;;33.17;12.77;;;9.60;99.90;;;;;;5096626;28;20057;-58
2023/02/19 04:35:48;;;;;;;29.97;13.57;;;9.60;99.90;;;;;;5096698;28;20056;-58
2023/02/19 04:38:14;;;;;;;36.67;14.60;;;9.60;99.90;;;;;;5096596;28;20047;-58
2023/02/19 04:40:40;;;;;;;40.40;15.10;;;9.50;99.90;;;;;;5096652;28;20388;-58
2023/02/19 04:43:05;;;;;;;33.77;14.27;;;9.50;99.90;;;;;;5094404;28;20032;-58
2023/02/19 04:45:31;;;;;;;36.07;15.13;;;9.40;99.90;;;;;;5093407;28;20055;-58
2023/02/19 04:47:57;;;;;;;33.37;13.93;;;9.40;99.90;;;;;;5093566;28;20028;-58
2023/02/19 04:50:24;;;;;;;36.33;14.40;;;9.40;99.90;;;;;;5093267;28;20404;-58
2023/02/19 04:52:49;;;;;;;37.90;16.03;;;9.40;99.90;;;;;;5093387;28;20028;-58
2023/02/19 04:55:16;;;;;;;31.73;13.30;;;9.40;99.90;;;;;;5093342;28;20024;-58
2023/02/19 04:57:42;;;;;;;33.80;14.67;;;9.30;99.90;;;;;;5093099;28;20381;-58
2023/02/19 05:00:08;;;;;;;32.33;14.23;;;9.40;99.90;;;;;;5093133;28;20058;-57
2023/02/19 05:02:34;;;;;;;31.97;13.43;;;9.40;99.90;;;;;;5093136;28;20032;-57
2023/02/19 05:05:00;;;;;;;33.10;13.20;;;9.40;99.90;;;;;;5092785;28;20039;-57
2023/02/19 05:07:25;;;;;;;33.17;13.07;;;9.40;99.90;;;;;;5093039;28;20094;-57
2023/02/19 05:09:51;;;;;;;29.10;12.67;;;9.40;99.90;;;;;;5092945;28;20043;-57
2023/02/19 05:12:17;;;;;;;30.63;12.23;;;9.40;99.90;;;;;;5093024;28;20024;-57
2023/02/19 05:14:44;;;;;;;29.10;13.13;;;9.40;99.90;;;;;;5092755;28;20020;-57
2023/02/19 05:17:09;;;;;;;28.10;11.30;;;9.50;99.90;;;;;;5092661;28;20141;-57
2023/02/19 05:19:35;;;;;;;31.17;12.27;;;9.40;99.90;;;;;;5092755;28;20032;-58
2023/02/19 05:22:01;;;;;;;31.80;12.03;;;9.40;99.90;;;;;;5092852;28;20374;-58
2023/02/19 05:24:27;;;;;;;28.70;11.90;;;9.50;99.90;;;;;;5091251;28;20063;-58
2023/02/19 05:26:52;;;;;;;29.13;11.83;;;9.50;99.90;;;;;;5092515;28;20032;-58
2023/02/19 05:29:18;;;;;;;28.00;11.30;;;9.50;99.90;;;;;;5092531;28;20031;-58
2023/02/19 05:31:44;;;;;;;36.50;12.50;;;9.40;99.90;;;;;;5092503;28;20035;-58
2023/02/19 05:34:10;;;;;;;28.43;11.80;;;9.40;99.90;;;;;;5092528;28;20032;-58
2023/02/19 05:36:36;;;;;;;29.07;12.13;;;9.40;99.90;;;;;;5092262;28;20020;-57
2023/02/19 05:39:05;;;;;;;31.63;12.83;;;9.30;99.90;;;;;;5092703;28;20042;-57
2023/02/19 05:41:30;;;;;;;40.35;14.35;;;9.40;99.90;;;;;;5092733;28;20024;-57
2023/02/19 05:43:57;;;;;;;30.30;13.63;;;9.40;99.90;;;;;;5092235;28;20032;-57
2023/02/19 05:46:25;;;;;;;34.97;13.47;;;9.40;99.90;;;;;;5092102;28;20032;-57
2023/02/19 05:48:51;;;;;;;36.63;14.83;;;9.40;99.90;;;;;;5092045;28;20228;-57
2023/02/19 05:51:19;;;;;;;42.27;15.17;;;9.30;99.90;;;;;;5092228;28;20031;-57
2023/02/19 05:53:46;;;;;;;38.03;12.83;;;9.30;99.90;;;;;;5091779;28;20077;-57
2023/02/19 05:56:32;;;;;;;31.37;12.50;;;9.20;99.90;;;;;;5090854;28;20077;-58
2023/02/19 05:59:06;;;;;;;25.67;11.90;;;9.30;99.90;;;;;;5092034;28;20107;-58
2023/02/19 06:01:34;;;;;;;34.10;12.80;;;9.30;99.90;;;;;;5091992;28;20039;-58
2023/02/19 06:04:00;;;;;;;31.57;12.40;;;9.20;99.90;;;;;;5091870;28;20063;-58
2023/02/19 06:06:26;;;;;;;35.30;12.23;;;9.20;99.90;;;;;;5091907;28;20047;-58
2023/02/19 06:08:52;;;;;;;31.93;12.63;;;9.20;99.90;;;;;;5091589;28;20047;-57
2023/02/19 06:11:18;;;;;;;28.77;11.70;;;9.20;99.90;;;;;;5091844;28;20063;-57
2023/02/19 06:13:45;;;;;;;28.40;12.03;;;9.20;99.90;;;;;;5090204;28;20311;-57
2023/02/19 06:16:11;;;;;;;32.10;11.80;;;9.20;99.90;;;;;;5091937;28;20440;-57
2023/02/19 06:18:39;;;;;;;34.47;12.97;;;9.20;99.90;;;;;;5091380;28;20035;-57
2023/02/19 06:21:06;;;;;;;30.27;12.03;;;9.20;99.90;;;;;;5091765;28;20459;-57
2023/02/19 06:23:32;;;;;;;29.43;12.00;;;9.10;99.90;;;;;;5091536;28;20059;-57
2023/02/19 06:26:24;;;;;;;28.53;11.73;;;9.10;99.90;;;;;;5091664;28;20494;-57
2023/02/19 06:28:52;;;;;;;32.53;11.30;;;9.10;99.90;;;;;;5088402;28;20119;-57
2023/02/19 06:31:19;;;;;;;25.37;10.33;;;9.10;99.90;;;;;;5091686;28;20036;-57
2023/02/19 06:33:45;;;;;;;27.00;10.73;;;9.10;99.90;;;;;;5091497;28;20437;-57
2023/02/19 06:36:17;;;;;;;31.50;11.10;;;9.10;99.90;;;;;;5091584;28;20024;-57
2023/02/19 06:38:43;;;;;;;31.03;11.23;;;9.10;99.90;;;;;;5091287;28;20446;-57
2023/02/19 06:41:09;;;;;;;23.27;10.20;;;9.10;99.90;;;;;;5091301;28;20040;-57
2023/02/19 06:43:35;;;;;;;23.30;9.23;;;9.10;99.90;;;;;;5091193;28;20028;-57
2023/02/19 06:46:02;;;;;;;24.17;9.73;;;9.10;99.90;;;;;;5091327;28;20085;-57
2023/02/19 06:48:29;;;;;;;31.23;10.17;;;9.10;99.90;;;;;;5090824;28;20042;-57
2023/02/19 06:50:55;;;;;;;24.43;9.47;;;9.10;99.90;;;;;;5091085;28;20032;-58
2023/02/19 06:53:22;;;;;;;27.00;9.90;;;9.00;99.90;;;;;;5090787;28;20027;-59
2023/02/19 06:55:55;;;;;;;25.47;10.30;;;9.00;99.90;;;;;;5091205;28;20032;-57
2023/02/19 06:58:21;;;;;;;26.40;9.57;;;9.00;99.90;;;;;;5090615;28;20024;-57
2023/02/19 07:00:47;;;;;;;21.73;9.30;;;9.00;99.90;;;;;;5090916;28;20030;-57
2023/02/19 07:03:12;;;;;;;26.37;10.10;;;9.00;99.90;;;;;;5089635;28;20115;-57
2023/02/19 07:05:38;;;;;;;27.70;9.30;;;9.00;99.90;;;;;;5090321;28;20036;-57
2023/02/19 07:08:04;;;;;;;23.70;9.57;;;9.00;99.90;;;;;;5090414;28;20032;-57
2023/02/19 07:10:30;;;;;;;24.17;9.00;;;9.10;99.90;;;;;;5090626;28;20035;-58
2023/02/19 07:12:55;;;;;;;24.87;9.27;;;9.10;99.90;;;;;;5090992;28;20024;-57
2023/02/19 07:15:21;;;;;;;23.47;10.27;;;9.10;99.90;;;;;;5090518;28;20477;-57
2023/02/19 07:17:47;;;;;;;26.80;10.00;;;9.10;99.90;;;;;;5090609;28;20032;-57
2023/02/19 07:20:12;;;;;;;24.73;10.10;;;9.10;99.90;;;;;;5090668;28;20572;-57
2023/02/19 07:22:38;;;;;;;28.73;9.63;;;9.10;99.90;;;;;;5090565;28;20503;-57
2023/02/19 07:25:04;;;;;;;22.03;8.97;;;9.10;99.90;;;;;;5090534;28;20395;-57
2023/02/19 07:27:30;;;;;;;32.10;11.50;;;9.00;99.90;;;;;;5090285;28;20028;-57
2023/02/19 07:29:56;;;;;;;33.23;11.73;;;9.00;99.90;;;;;;5090456;28;20028;-57
2023/02/19 07:32:22;;;;;;;34.73;12.73;;;9.00;99.90;;;;;;5090699;28;20042;-57
2023/02/19 07:34:47;;;;;;;34.23;12.90;;;9.00;99.90;;;;;;5090353;28;20027;-57
2023/02/19 07:37:13;;;;;;;34.27;13.33;;;9.00;99.90;;;;;;5090325;28;20089;-57
2023/02/19 07:39:38;;;;;;;39.27;14.40;;;9.00;99.90;;;;;;5090613;28;20111;-58
2023/02/19 07:42:04;;;;;;;36.70;15.53;;;9.10;99.90;;;;;;5090433;28;20459;-58
2023/02/19 07:44:31;;;;;;;33.33;13.03;;;9.10;99.90;;;;;;5088886;28;20062;-58
2023/02/19 07:46:57;;;;;;;26.87;12.80;;;9.10;99.90;;;;;;5090167;28;20063;-58
2023/02/19 07:49:22;;;;;;;31.93;12.03;;;9.10;99.90;;;;;;5090379;28;20028;-58
2023/02/19 07:51:48;;;;;;;32.77;11.93;;;9.20;99.90;;;;;;5089066;28;20451;-60
2023/02/19 07:54:14;;;;;;;29.53;12.03;;;9.20;99.90;;;;;;5090171;28;20028;-57
2023/02/19 07:56:40;;;;;;;28.50;11.53;;;9.20;99.90;;;;;;5090586;28;20259;-59
2023/02/19 07:59:05;;;;;;;30.53;11.97;;;9.20;99.90;;;;;;5090308;28;20032;-57
2023/02/19 08:04:15;;;;;;;26.93;12.27;;;9.10;99.90;;;;;;5090053;28;20509;-57
2023/02/19 08:06:41;;;;;;;25.93;12.07;;;9.10;99.90;;;;;;5090316;28;20035;-58
2023/02/19 08:09:07;;;;;;;33.03;12.07;;;9.20;99.90;;;;;;5090078;28;20031;-57
2023/02/19 08:14:17;;;;;;;31.40;11.73;;;9.30;99.90;;;;;;5089998;28;20097;-57
2023/02/19 08:16:50;;;;;;;27.70;11.80;;;9.40;99.90;;;;;;5089861;28;20028;-57
2023/02/19 08:19:17;;;;;;;28.53;11.20;;;9.40;99.90;;;;;;5092602;28;20055;-59
2023/02/19 08:21:42;;;;;;;24.80;11.47;;;9.50;99.90;;;;;;5094225;28;20039;-58
2023/02/19 08:24:08;;;;;;;27.87;10.87;;;9.50;99.90;;;;;;5093653;28;20032;-58
2023/02/19 08:26:34;;;;;;;25.93;10.70;;;9.60;99.90;;;;;;5093668;28;20032;-59
2023/02/19 08:29:00;;;;;;;36.17;13.03;;;9.50;99.90;;;;;;5093712;28;20430;-58
2023/02/19 08:31:26;;;;;;;27.33;11.20;;;9.50;99.90;;;;;;5093679;28;20111;-58
2023/02/19 08:33:52;;;;;;;25.83;10.50;;;9.50;99.90;;;;;;5093429;28;20149;-59
2023/02/19 08:36:18;;;;;;;25.73;10.37;;;9.40;99.90;;;;;;5093550;28;20020;-58
2023/02/19 08:38:43;;;;;;;26.13;10.83;;;9.50;99.90;;;;;;5093437;28;20535;-57
2023/02/19 08:41:11;;;;;;;28.03;10.50;;;9.40;99.90;;;;;;5093565;28;20039;-58
2023/02/19 08:43:38;;;;;;;22.03;9.67;;;9.60;99.90;;;;;;5093359;28;20032;-58
2023/02/19 08:46:05;;;;;;;25.10;10.97;;;9.60;99.90;;;;;;5093486;28;20036;-58
2023/02/19 08:48:31;;;;;;;23.47;10.13;;;9.70;99.90;;;;;;5093140;28;20107;-58
2023/02/19 08:51:02;;;;;;;22.07;9.50;;;9.70;99.90;;;;;;5093415;28;20524;-59
2023/02/19 08:53:30;;;;;;;25.53;10.00;;;9.80;99.90;;;;;;5093172;28;20027;-57
2023/02/19 08:55:55;;;;;;;24.33;9.87;;;9.80;99.90;;;;;;5093344;28;20028;-58
2023/02/19 08:58:24;;;;;;;23.40;9.37;;;9.80;99.90;;;;;;5093438;28;20030;-57
2023/02/19 09:00:49;;;;;;;26.63;9.77;;;9.70;99.90;;;;;;5093627;28;20066;-58
2023/02/19 09:03:15;;;;;;;21.87;8.97;;;9.70;99.90;;;;;;5093138;28;20081;-57
2023/02/19 09:05:41;;;;;;;23.53;9.70;;;9.80;99.90;;;;;;5093073;28;20036;-58
2023/02/19 09:08:07;;;;;;;23.00;8.70;;;9.90;99.90;;;;;;5092803;28;20035;-58
2023/02/19 09:10:32;;;;;;;19.33;8.77;;;10.00;99.90;;;;;;5092915;28;20491;-58
2023/02/19 09:12:58;;;;;;;17.70;8.53;;;10.10;99.90;;;;;;5092972;28;20036;-57
2023/02/19 09:15:24;;;;;;;22.10;9.27;;;10.20;99.90;;;;;;5091606;28;20024;-57
2023/02/19 09:17:51;;;;;;;21.87;8.87;;;10.20;99.90;;;;;;5092733;28;20459;-57
2023/02/19 09:20:17;;;;;;;21.93;7.93;;;10.10;99.90;;;;;;5093040;28;20115;-57
2023/02/19 09:22:43;;;;;;;17.10;8.20;;;10.10;99.90;;;;;;5092776;28;20024;-57
2023/02/19 09:25:09;;;;;;;22.77;8.00;;;10.10;99.90;;;;;;5092548;28;20498;-57
2023/02/19 09:27:34;;;;;;;21.67;7.80;;;10.10;99.90;;;;;;5092287;28;20040;-58
2023/02/19 09:30:00;;;;;;;20.40;8.73;;;10.10;99.90;;;;;;5092063;28;20052;-59
2023/02/19 09:32:28;;;;;;;21.40;8.97;;;10.00;99.90;;;;;;5092630;28;20172;-58
2023/02/19 09:34:54;;;;;;;19.43;8.20;;;9.90;99.90;;;;;;5092399;28;20028;-58
2023/02/19 09:37:25;;;;;;;20.43;9.33;;;9.90;99.90;;;;;;5092273;28;20077;-58
2023/02/19 09:39:50;;;;;;;25.67;9.53;;;9.90;99.90;;;;;;5092372;28;20034;-58
2023/02/19 09:42:19;;;;;;;24.57;8.53;;;9.90;99.90;;;;;;5092917;28;20032;-58
2023/02/19 09:44:48;;;;;;;21.42;8.35;;;9.90;99.90;;;;;;5092457;28;20551;-58
2023/02/19 09:47:23;;;;;;;21.97;8.43;;;9.90;99.90;;;;;;5092009;28;20032;-57
2023/02/19 09:50:01;;;;;;;20.17;8.40;;;9.80;99.90;;;;;;5092163;28;20267;-57
2023/02/19 09:52:48;;;;;;;15.57;7.88;;;9.80;99.90;;;;;;5092232;28;20620;-57
2023/02/19 09:55:14;;;;;;;18.87;7.70;;;9.70;99.90;;;;;;5092042;28;20039;-57
2023/02/19 09:57:41;;;;;;;14.73;6.70;;;9.80;99.90;;;;;;5091807;28;20024;-57
2023/02/19 10:00:22;;;;;;;17.10;6.90;;;9.80;99.90;;;;;;5091996;28;20119;-59
2023/02/19 10:02:59;;;;;;;17.53;7.60;;;9.80;99.90;;;;;;5092065;28;20035;-58
2023/02/19 10:05:25;;;;;;;16.07;7.23;;;9.80;99.90;;;;;;5091936;28;20032;-59
2023/02/19 10:07:53;;;;;;;13.50;6.53;;;10.20;99.90;;;;;;5091661;28;20032;-59
2023/02/19 10:10:30;;;;;;;10.73;6.13;;;10.30;99.90;;;;;;5103921;22;20040;-58
2023/02/19 10:13:10;;;;;;;12.47;6.23;;;10.40;99.90;;;;;;5091821;28;20028;-58
2023/02/19 10:15:50;;;;;;;11.23;5.93;;;10.40;99.90;;;;;;5091652;28;20107;-58
2023/02/19 10:18:19;;;;;;;13.17;6.13;;;10.40;99.90;;;;;;5091635;28;20043;-58
2023/02/19 10:20:46;;;;;;;15.20;5.40;;;10.30;99.90;;;;;;5091676;28;20032;-58
2023/02/19 10:23:14;;;;;;;14.97;6.40;;;10.30;99.90;;;;;;5091670;28;20494;-58
2023/02/19 10:25:45;;;;;;;13.53;5.80;;;10.20;99.90;;;;;;5091528;28;20028;-57
2023/02/19 10:28:19;;;;;;;14.73;6.20;;;10.20;99.90;;;;;;5091079;28;20062;-57
2023/02/19 10:30:51;;;;;;;18.33;6.80;;;10.30;99.90;;;;;;5091451;28;20024;-57
2023/02/19 10:33:18;;;;;;;16.83;6.67;;;10.40;99.90;;;;;;5091476;28;20031;-58
2023/02/19 10:35:52;;;;;;;14.00;6.07;;;10.60;99.90;;;;;;5091334;28;20387;-58
2023/02/19 10:38:20;;;;;;;17.90;7.73;;;10.80;99.90;;;;;;5091149;28;20032;-58
2023/02/19 10:40:46;;;;;;;18.77;7.30;;;11.00;99.90;;;;;;5090367;28;20392;-58
2023/02/19 10:43:31;;;;;;;14.80;6.97;;;11.30;99.90;;;;;;5091456;28;20043;-58
2023/02/19 10:46:00;;;;;;;13.27;6.60;;;11.30;99.90;;;;;;5091304;28;20508;-57
2023/02/19 10:48:39;;;;;;;14.35;6.15;;;11.50;99.90;;;;;;5091256;28;20048;-58
2023/02/19 10:51:08;;;;;;;14.85;6.32;;;11.80;99.90;;;;;;5091022;28;20088;-58
2023/02/19 10:54:01;;;;;;;22.50;8.10;;;11.70;99.90;;;;;;5090903;28;20027;-57
2023/02/19 10:56:30;;;;;;;18.08;7.90;;;11.60;99.90;;;;;;5091306;28;20115;-58
2023/02/19 10:59:24;;;;;;;18.48;7.25;;;11.60;99.90;;;;;;5090415;28;20062;-58
2023/02/19 11:01:56;;;;;;;18.63;7.38;;;11.60;99.90;;;;;;5091051;28;20040;-58
2023/02/19 11:04:23;;;;;;;11.52;5.90;;;11.50;99.90;;;;;;5090721;28;20028;-58
2023/02/19 11:06:49;;;;;;;12.70;6.43;;;11.60;99.90;;;;;;5091039;28;20066;-58
2023/02/19 11:09:25;;;;;;;14.65;4.55;;;11.80;99.90;;;;;;5090456;28;20060;-58
2023/02/19 11:11:53;;;;;;;14.35;6.15;;;11.70;99.90;;;;;;5090820;28;20036;-58
2023/02/19 11:14:22;;;;;;;15.45;6.15;;;11.50;99.90;;;;;;5090669;28;20077;-58
2023/02/19 11:16:59;;;;;;;10.02;3.97;;;11.20;99.90;;;;;;5090908;28;20445;-57
2023/02/19 11:19:30;;;;;;;8.03;4.07;;;10.90;99.90;;;;;;5090558;28;20103;-57
2023/02/19 11:21:58;;;;;;;10.00;3.93;;;10.80;99.90;;;;;;5090732;28;20445;-58
2023/02/19 11:24:36;;;;;;;7.93;3.63;;;10.70;99.90;;;;;;5089154;28;20412;-58
2023/02/19 11:27:15;;;;;;;6.53;3.67;;;10.60;99.90;;;;;;5090417;28;20055;-57
2023/02/19 11:29:41;;;;;;;8.30;3.80;;;10.60;99.90;;;;;;5090599;28;20036;-57
2023/02/19 11:32:28;;;;;;;8.10;3.80;;;10.50;99.90;;;;;;5090694;28;20035;-58
2023/02/19 11:35:21;;;;;;;6.73;3.60;;;10.60;99.90;;;;;;5090205;28;20064;-58
2023/02/19 11:37:57;;;;;;;11.83;4.33;;;10.70;99.90;;;;;;5090309;28;20112;-58
2023/02/19 11:40:38;;;;;;;11.37;4.13;;;10.70;99.90;;;;;;5090535;28;20039;-58
2023/02/19 11:43:13;;;;;;;11.53;4.70;;;10.60;99.90;;;;;;5090500;28;20039;-57
2023/02/19 11:45:52;;;;;;;8.57;3.90;;;10.60;99.90;;;;;;5090590;28;20115;-58
2023/02/19 11:48:31;;;;;;;10.18;4.53;;;10.60;99.90;;;;;;5090205;28;20114;-58
2023/02/19 11:51:06;;;;;;;7.47;4.20;;;10.50;99.90;;;;;;5090519;28;20499;-57
2023/02/19 11:53:36;;;;;;;8.13;3.93;;;10.40;99.90;;;;;;5093177;28;20032;-57
2023/02/19 11:56:23;;;;;;;15.07;4.83;;;10.30;99.90;;;;;;5094439;28;20088;-58
2023/02/19 11:59:08;;;;;;;6.97;3.90;;;10.10;99.90;;;;;;5094788;28;20115;-58
2023/02/19 12:01:43;;;;;;;7.90;4.30;;;10.00;99.90;;;;;;5094536;28;20089;-58
2023/02/19 12:04:33;;;;;;;7.63;4.30;;;9.80;99.90;;;;;;5094593;28;20380;-57
2023/02/19 12:07:06;;;;;;;9.13;4.93;;;9.70;99.90;;;;;;5094113;28;20039;-58
2023/02/19 12:09:51;;;;;;;8.87;4.63;;;9.70;99.90;;;;;;5094085;28;20048;-58
2023/02/19 12:12:31;;;;;;;10.50;5.90;;;9.70;99.90;;;;;;5094268;28;20122;-58
2023/02/19 12:15:08;;;;;;;10.17;5.30;;;9.80;99.90;;;;;;5093972;28;20059;-58
2023/02/19 12:17:42;;;;;;;12.80;5.30;;;10.10;99.90;;;;;;5093989;28;20032;-59
2023/02/19 12:20:45;;;;;;;9.40;5.87;;;10.30;99.90;;;;;;5094104;28;20090;-59
2023/02/19 12:23:33;;;;;;;9.13;5.07;;;10.30;99.90;;;;;;5094077;28;20032;-59
2023/02/19 12:26:26;;;;;;;7.30;3.83;;;10.20;99.90;;;;;;5094016;28;20039;-59
2023/02/19 12:28:51;;;;;;;5.13;3.30;;;9.90;99.90;;;;;;5093875;28;20404;-59
2023/02/19 12:31:53;;;;;;;6.10;2.63;;;9.80;99.90;;;;;;5093882;28;20068;-58
2023/02/19 12:34:37;;;;;;;5.57;1.83;;;9.50;99.90;;;;;;5093976;28;20089;-59
2023/02/19 12:37:18;;;;;;;8.57;2.33;;;9.50;99.90;;;;;;5093572;28;20069;-59
2023/02/19 12:39:55;;;;;;;3.00;1.83;;;9.40;99.90;;;;;;5093669;28;20024;-58
2023/02/19 12:42:33;;;;;;;4.33;2.20;;;9.30;99.90;;;;;;5093773;28;20028;-59
2023/02/19 12:45:05;;;;;;;5.87;2.73;;;9.30;99.90;;;;;;5093520;28;20085;-58
2023/02/19 12:47:38;;;;;;;5.27;3.00;;;9.40;99.90;;;;;;5093959;28;20035;-58
2023/02/19 12:50:03;;;;;;;4.83;3.17;;;9.40;99.90;;;;;;5093411;28;20115;-59
2023/02/19 12:52:35;;;;;;;6.17;2.40;;;9.60;99.90;;;;;;5093576;28;20119;-59
2023/02/19 12:55:16;;;;;;;4.23;2.40;;;9.60;99.90;;;;;;5093383;28;20035;-58
2023/02/19 12:57:42;;;;;;;5.67;2.60;;;9.70;99.90;;;;;;5093357;28;20400;-59
2023/02/19 13:00:29;;;;;;;7.23;3.00;;;9.90;99.90;;;;;;5093272;28;20028;-59
2023/02/19 13:03:19;;;;;;;7.00;2.90;;;10.00;99.90;;;;;;5093513;28;20028;-59
2023/02/19 13:06:19;;;;;;;7.00;3.23;;;10.10;99.90;;;;;;5093162;28;20383;-59
2023/02/19 13:08:54;;;;;;;4.97;2.90;;;10.10;99.90;;;;;;5093093;28;20024;-61
2023/02/19 13:11:31;;;;;;;6.90;3.90;;;10.10;99.90;;;;;;5093080;28;20050;-59
2023/02/19 13:14:07;;;;;;;7.20;3.67;;;10.20;99.90;;;;;;5092965;28;20028;-58
2023/02/19 13:16:38;;;;;;;10.20;4.73;;;10.20;99.90;;;;;;5092902;28;20115;-58
2023/02/19 13:19:04;;;;;;;7.23;3.90;;;10.10;99.90;;;;;;5092731;28;20046;-58
2023/02/19 13:24:25;;;;;;;8.70;3.70;;;10.00;99.90;;;;;;5092828;28;20031;-58
2023/02/19 13:27:03;;;;;;;7.33;3.80;;;10.00;99.90;;;;;;5092762;28;20492;-58